createdAt,value
2022-09-23T00:01:14.989Z,14.82
2022-09-23T00:03:49.029Z,15.96
2022-09-23T00:06:24.009Z,16.91
2022-09-23T00:08:52.704Z,17.10
2022-09-23T00:11:28.216Z,13.87
2022-09-23T00:14:00.426Z,15.39
2022-09-23T00:16:33.490Z,14.44
2022-09-23T00:19:04.831Z,21.47
2022-09-23T00:21:31.518Z,16.72
2022-09-23T00:23:58.359Z,16.72
2022-09-23T00:26:25.105Z,13.11
2022-09-23T00:28:52.580Z,16.72
2022-09-23T00:31:24.066Z,15.77
2022-09-23T00:34:00.881Z,16.34
2022-09-23T00:36:29.537Z,12.73
2022-09-23T00:38:56.957Z,15.01
2022-09-23T00:41:25.229Z,16.34
2022-09-23T00:43:58.579Z,16.72
2022-09-23T00:46:43.565Z,12.16
2022-09-23T00:49:29.292Z,16.91
2022-09-23T00:52:07.429Z,17.48
2022-09-23T00:54:34.351Z,14.82
2022-09-23T00:57:03.736Z,17.67
2022-09-23T00:59:30.521Z,18.62
2022-09-23T01:02:00.240Z,14.25
2022-09-23T01:04:29.748Z,16.72
2022-09-23T01:06:56.507Z,18.05
2022-09-23T01:09:25.250Z,15.20
2022-09-23T01:12:08.510Z,17.10
2022-09-23T01:14:55.962Z,15.58
2022-09-23T01:17:53.581Z,15.01
2022-09-23T01:20:42.095Z,13.30
2022-09-23T01:23:30.354Z,17.67
2022-09-23T01:26:38.086Z,12.16
2022-09-23T01:29:57.551Z,14.06
2022-09-23T01:33:08.803Z,13.49
2022-09-23T01:35:49.678Z,12.92
2022-09-23T01:38:49.997Z,13.30
2022-09-23T01:41:26.783Z,13.49
2022-09-23T01:44:11.342Z,11.59
2022-09-23T01:46:40.573Z,12.73
2022-09-23T01:49:27.625Z,13.49
2022-09-23T01:52:06.828Z,11.02
2022-09-23T01:54:50.730Z,12.73
2022-09-23T01:57:31.940Z,13.11
2022-09-23T02:00:15.238Z,11.78
2022-09-23T02:03:04.942Z,12.73
2022-09-23T02:05:59.181Z,12.73
2022-09-23T02:08:35.952Z,11.59
2022-09-23T02:11:10.269Z,12.73
2022-09-23T02:14:16.974Z,15.20
2022-09-23T02:16:48.518Z,12.54
2022-09-23T02:19:36.144Z,14.82
2022-09-23T02:22:15.817Z,12.92
2022-09-23T02:24:42.787Z,14.63
2022-09-23T02:27:47.551Z,12.92
2022-09-23T02:30:27.923Z,14.06
2022-09-23T02:33:08.432Z,12.16
2022-09-23T02:35:49.121Z,14.44
2022-09-23T02:38:51.174Z,12.54
2022-09-23T02:41:26.726Z,14.25
2022-09-23T02:44:09.043Z,12.54
2022-09-23T02:46:37.084Z,12.54
2022-09-23T02:49:28.223Z,11.59
2022-09-23T02:51:56.953Z,15.96
2022-09-23T02:54:28.875Z,11.59
2022-09-23T02:56:57.352Z,16.34
2022-09-23T02:59:24.727Z,15.20
2022-09-23T03:02:35.074Z,14.63
2022-09-23T03:05:24.965Z,12.16
2022-09-23T03:08:15.146Z,11.40
2022-09-23T03:11:17.504Z,13.49
2022-09-23T03:14:16.828Z,14.82
2022-09-23T03:17:10.624Z,13.68
2022-09-23T03:19:54.121Z,12.54
2022-09-23T03:22:48.455Z,14.63
2022-09-23T03:25:21.837Z,12.35
2022-09-23T03:27:48.507Z,11.97
2022-09-23T03:30:18.307Z,14.44
2022-09-23T03:32:47.119Z,14.44
2022-09-23T03:35:14.915Z,14.25
2022-09-23T03:38:10.142Z,14.82
2022-09-23T03:40:44.516Z,11.97
2022-09-23T03:43:13.440Z,12.73
2022-09-23T03:45:42.674Z,13.30
2022-09-23T03:48:09.667Z,13.87
2022-09-23T03:50:36.894Z,11.78
2022-09-23T03:53:03.560Z,13.87
2022-09-23T03:55:31.247Z,14.25
2022-09-23T03:57:59.018Z,12.35
2022-09-23T04:00:26.083Z,10.83
2022-09-23T04:02:52.742Z,16.91
2022-09-23T04:05:19.470Z,12.35
2022-09-23T04:07:46.221Z,12.92
2022-09-23T04:10:13.029Z,14.63
2022-09-23T04:12:39.723Z,12.73
2022-09-23T04:15:07.344Z,15.01
2022-09-23T04:17:34.305Z,13.11
2022-09-23T04:20:01.172Z,15.20
2022-09-23T04:22:27.805Z,14.06
2022-09-23T04:24:54.728Z,13.68
2022-09-23T04:27:21.412Z,13.11
2022-09-23T04:29:48.177Z,12.54
2022-09-23T04:32:14.802Z,13.30
2022-09-23T04:34:41.431Z,10.45
2022-09-23T04:37:08.119Z,12.73
2022-09-23T04:39:34.976Z,14.25
2022-09-23T04:42:01.641Z,13.87
2022-09-23T04:44:28.279Z,15.39
2022-09-23T04:46:55.098Z,12.16
2022-09-23T04:49:22.018Z,13.49
2022-09-23T04:51:48.827Z,15.77
2022-09-23T04:54:15.485Z,12.92
2022-09-23T04:56:42.784Z,12.35
2022-09-23T04:59:09.436Z,11.59
2022-09-23T05:01:37.964Z,11.78
2022-09-23T05:04:10.972Z,13.87
2022-09-23T05:06:38.201Z,12.35
2022-09-23T05:09:08.430Z,13.11
2022-09-23T05:11:36.320Z,11.21
2022-09-23T05:14:03.325Z,14.06
2022-09-23T05:16:30.333Z,12.73
2022-09-23T05:18:58.123Z,11.97
2022-09-23T05:21:29.012Z,14.06
2022-09-23T05:24:01.520Z,13.87
2022-09-23T05:26:31.331Z,15.39
2022-09-23T05:28:59.157Z,13.30
2022-09-23T05:31:29.544Z,11.97
2022-09-23T05:34:00.284Z,13.68
2022-09-23T05:36:33.086Z,13.11
2022-09-23T05:39:04.268Z,12.16
2022-09-23T05:41:32.395Z,11.78
2022-09-23T05:43:59.862Z,15.01
2022-09-23T05:46:30.148Z,12.92
2022-09-23T05:49:02.698Z,12.73
2022-09-23T05:51:32.392Z,15.20
2022-09-23T05:54:02.843Z,14.82
2022-09-23T05:56:32.027Z,14.44
2022-09-23T05:59:01.604Z,17.67
2022-09-23T06:01:33.662Z,13.68
2022-09-23T06:04:04.199Z,17.48
2022-09-23T06:06:39.499Z,15.96
2022-09-23T06:09:11.334Z,16.53
2022-09-23T06:11:37.966Z,11.59
2022-09-23T06:14:05.349Z,17.48
2022-09-23T06:16:35.528Z,12.73
2022-09-23T06:19:06.743Z,14.44
2022-09-23T06:21:37.993Z,14.06
2022-09-23T06:24:06.873Z,15.77
2022-09-23T06:26:35.528Z,14.06
2022-09-23T06:29:07.921Z,14.82
2022-09-23T06:31:34.629Z,11.78
2022-09-23T06:34:10.446Z,13.49
2022-09-23T06:36:43.912Z,17.10
2022-09-23T06:39:16.092Z,15.01
2022-09-23T06:41:44.719Z,15.20
2022-09-23T06:44:11.410Z,15.39
2022-09-23T06:46:38.229Z,15.01
2022-09-23T06:49:05.011Z,22.42
2022-09-23T06:51:31.989Z,16.72
2022-09-23T06:53:58.634Z,14.82
2022-09-23T06:56:25.262Z,13.68
2022-09-23T06:58:53.074Z,17.48
2022-09-23T07:01:20.142Z,15.01
2022-09-23T07:03:48.542Z,14.63
2022-09-23T07:06:17.172Z,13.68
2022-09-23T07:08:47.062Z,14.63
2022-09-23T07:11:15.663Z,16.53
2022-09-23T07:13:42.755Z,16.91
2022-09-23T07:16:11.562Z,16.15
2022-09-23T07:18:39.537Z,14.25
2022-09-23T07:21:16.051Z,14.44
2022-09-23T07:23:48.548Z,14.06
2022-09-23T07:26:17.289Z,14.25
2022-09-23T07:28:44.006Z,13.68
2022-09-23T07:31:27.024Z,14.44
2022-09-23T07:34:03.496Z,12.92
2022-09-23T07:36:33.793Z,13.49
2022-09-23T07:39:03.511Z,12.16
2022-09-23T07:41:33.346Z,12.73
2022-09-23T07:44:01.157Z,12.73
2022-09-23T07:46:32.485Z,11.78
2022-09-23T07:49:00.529Z,12.92
2022-09-23T07:51:36.453Z,14.25
2022-09-23T07:54:09.959Z,11.59
2022-09-23T07:56:38.483Z,8.74
2022-09-23T07:59:09.219Z,10.26
2022-09-23T08:01:44.137Z,12.54
2022-09-23T08:04:23.187Z,11.02
2022-09-23T08:06:54.773Z,18.05
2022-09-23T08:09:25.991Z,11.02
2022-09-23T08:11:53.745Z,12.73
2022-09-23T08:14:22.528Z,14.25
2022-09-23T08:16:50.794Z,12.92
2022-09-23T08:19:18.825Z,13.11
2022-09-23T08:21:47.650Z,9.69
2022-09-23T08:24:21.864Z,10.64
2022-09-23T08:26:48.523Z,10.64
2022-09-23T08:29:17.970Z,12.35
2022-09-23T08:31:46.006Z,11.78
2022-09-23T08:34:13.417Z,9.69
2022-09-23T08:36:40.080Z,9.69
2022-09-23T08:39:06.916Z,13.87
2022-09-23T08:41:42.842Z,9.50
2022-09-23T08:44:28.018Z,11.97
2022-09-23T08:47:47.547Z,11.97
2022-09-23T08:50:24.101Z,8.74
2022-09-23T08:52:58.685Z,11.78
2022-09-23T08:55:51.775Z,7.98
2022-09-23T08:58:55.083Z,7.98
2022-09-23T09:01:43.064Z,10.45
2022-09-23T09:04:39.369Z,9.12
2022-09-23T09:07:35.099Z,10.83
2022-09-23T09:10:25.540Z,9.50
2022-09-23T09:13:20.277Z,8.36
2022-09-23T09:16:16.022Z,10.45
2022-09-23T09:19:00.339Z,9.31
2022-09-23T09:21:39.861Z,8.17
2022-09-23T09:24:35.343Z,8.36
2022-09-23T09:27:12.882Z,7.60
2022-09-23T09:29:49.907Z,7.41
2022-09-23T09:32:35.976Z,8.17
2022-09-23T09:35:20.905Z,7.79
2022-09-23T09:37:47.984Z,7.79
2022-09-23T09:40:17.347Z,8.93
2022-09-23T09:42:49.967Z,7.22
2022-09-23T09:45:46.903Z,7.03
2022-09-23T09:48:23.821Z,6.46
2022-09-23T09:50:53.875Z,6.46
2022-09-23T09:53:32.016Z,9.31
2022-09-23T09:56:14.820Z,7.41
2022-09-23T09:58:55.795Z,9.31
2022-09-23T10:01:34.550Z,7.22
2022-09-23T10:04:06.543Z,7.22
2022-09-23T10:06:35.930Z,7.41
2022-09-23T10:09:08.461Z,7.41
2022-09-23T10:11:35.844Z,6.46
2022-09-23T10:18:38.356Z,7.60
2022-09-23T10:21:23.090Z,9.50
2022-09-23T10:23:58.224Z,7.98
2022-09-23T10:26:38.899Z,5.89
2022-09-23T10:30:01.213Z,7.03
2022-09-23T10:32:32.616Z,6.46
2022-09-23T10:35:16.974Z,7.60
2022-09-23T10:37:58.947Z,5.70
2022-09-23T10:41:00.308Z,7.03
2022-09-23T10:44:00.654Z,6.46
2022-09-23T10:46:38.236Z,5.89
2022-09-23T10:49:52.719Z,5.51
2022-09-23T10:52:35.241Z,6.08
2022-09-23T10:55:40.290Z,8.74
2022-09-23T10:58:21.857Z,6.65
2022-09-23T11:01:06.965Z,6.65
2022-09-23T11:04:16.586Z,6.08
2022-09-23T11:07:07.516Z,6.65
2022-09-23T11:10:18.405Z,6.27
2022-09-23T11:13:05.991Z,5.70
2022-09-23T11:16:02.719Z,7.22
2022-09-23T11:19:04.045Z,6.84
2022-09-23T11:22:14.090Z,6.65
2022-09-23T11:24:50.284Z,7.79
2022-09-23T11:27:52.536Z,5.51
2022-09-23T11:30:21.214Z,5.51
2022-09-23T11:33:04.371Z,6.46
2022-09-23T11:35:37.293Z,5.89
2022-09-23T11:38:28.759Z,6.27
2022-09-23T11:41:03.303Z,5.51
2022-09-23T11:43:39.920Z,6.08
2022-09-23T11:46:24.479Z,7.79
2022-09-23T11:49:03.745Z,6.27
2022-09-23T11:51:42.477Z,6.08
2022-09-23T11:54:44.277Z,7.60
2022-09-23T11:57:45.204Z,6.46
2022-09-23T12:00:22.093Z,5.70
2022-09-23T12:03:07.279Z,6.46
2022-09-23T12:06:00.177Z,7.03
2022-09-23T12:08:37.265Z,4.94
2022-09-23T12:11:40.559Z,5.89
2022-09-23T12:14:33.650Z,6.08
2022-09-23T12:17:49.222Z,5.51
2022-09-23T12:20:49.123Z,7.98
2022-09-23T12:24:18.451Z,6.27
2022-09-23T12:26:57.290Z,6.08
2022-09-23T12:29:32.094Z,5.70
2022-09-23T12:31:59.976Z,6.27
2022-09-23T12:34:49.144Z,5.70
2022-09-23T12:37:37.001Z,5.32
2022-09-23T12:40:31.334Z,6.08
2022-09-23T12:43:01.229Z,6.27
2022-09-23T12:45:34.799Z,6.27
2022-09-23T12:48:24.216Z,7.60
2022-09-23T12:51:13.326Z,6.65
2022-09-23T12:53:40.143Z,5.70
2022-09-23T12:56:26.659Z,6.08
2022-09-23T12:58:53.238Z,7.03
2022-09-23T13:01:25.254Z,6.08
2022-09-23T13:04:17.528Z,7.22
2022-09-23T13:07:03.516Z,6.65
2022-09-23T13:09:39.483Z,5.89
2022-09-23T13:12:31.203Z,6.65
2022-09-23T13:15:04.654Z,7.22
2022-09-23T13:17:37.517Z,7.79
2022-09-23T13:20:05.879Z,6.65
2022-09-23T13:23:00.042Z,5.32
2022-09-23T13:25:32.517Z,5.32
2022-09-23T13:28:02.823Z,6.08
2022-09-23T13:30:30.392Z,7.41
2022-09-23T13:33:11.149Z,5.70
2022-09-23T13:35:44.531Z,5.51
2022-09-23T13:38:24.809Z,7.03
2022-09-23T13:41:17.628Z,7.79
2022-09-23T13:43:50.614Z,5.51
2022-09-23T13:46:23.138Z,6.27
2022-09-23T13:48:57.217Z,5.89
2022-09-23T13:51:33.879Z,6.27
2022-09-23T13:54:04.638Z,6.08
2022-09-23T13:56:35.410Z,5.70
2022-09-23T13:59:38.194Z,5.32
2022-09-23T14:02:19.910Z,5.70
2022-09-23T14:04:47.001Z,5.13
2022-09-23T14:07:16.804Z,5.13
2022-09-23T14:09:51.173Z,12.16
2022-09-23T14:12:22.566Z,6.46
2022-09-23T14:14:53.137Z,6.08
2022-09-23T14:17:22.973Z,6.46
2022-09-23T14:19:51.352Z,6.65
2022-09-23T14:22:25.327Z,5.89
2022-09-23T14:24:54.292Z,9.88
2022-09-23T14:27:32.814Z,5.13
2022-09-23T14:30:03.078Z,7.03
2022-09-23T14:32:32.210Z,4.75
2022-09-23T14:35:03.809Z,5.70
2022-09-23T14:37:55.109Z,5.89
2022-09-23T14:40:35.991Z,5.51
2022-09-23T14:43:25.151Z,5.70
2022-09-23T14:45:58.737Z,5.89
2022-09-23T14:48:29.306Z,5.13
2022-09-23T14:50:59.817Z,7.41
2022-09-23T14:53:46.402Z,5.13
2022-09-23T14:56:24.672Z,4.56
2022-09-23T14:59:00.567Z,5.13
2022-09-23T15:01:33.634Z,4.94
2022-09-23T15:04:27.867Z,4.75
2022-09-23T15:07:18.449Z,4.94
2022-09-23T15:09:45.841Z,5.70
2022-09-23T15:12:21.472Z,7.22
2022-09-23T15:14:56.598Z,5.51
2022-09-23T15:17:23.144Z,6.08
2022-09-23T15:20:08.946Z,6.46
2022-09-23T15:22:55.942Z,7.03
2022-09-23T15:25:40.689Z,5.70
2022-09-23T15:28:10.189Z,7.03
2022-09-23T15:30:39.420Z,5.32
2022-09-23T15:33:06.860Z,10.64
2022-09-23T15:35:33.652Z,12.73
2022-09-23T15:38:03.314Z,15.58
2022-09-23T15:40:34.402Z,7.03
2022-09-23T15:43:20.164Z,6.27
2022-09-23T15:46:04.934Z,8.55
2022-09-23T15:48:43.649Z,7.60
2022-09-23T15:51:15.208Z,6.27
2022-09-23T15:53:41.954Z,6.27
2022-09-23T15:56:08.728Z,7.79
2022-09-23T15:58:35.769Z,7.98
2022-09-23T16:01:04.211Z,6.84
2022-09-23T16:03:31.059Z,6.08
2022-09-23T16:06:02.953Z,6.65
2022-09-23T16:08:32.661Z,7.98
2022-09-23T16:10:59.658Z,7.41
2022-09-23T16:13:26.369Z,8.36
2022-09-23T16:16:52.446Z,12.92
2022-09-23T16:19:19.495Z,11.02
2022-09-23T16:21:46.612Z,9.50
2022-09-23T16:24:18.672Z,12.92
2022-09-23T16:26:48.553Z,11.21
2022-09-23T16:29:15.476Z,11.97
2022-09-23T16:31:42.738Z,10.83
2022-09-23T16:34:09.700Z,10.26
2022-09-23T16:36:41.979Z,11.59
2022-09-23T16:39:12.832Z,12.35
2022-09-23T16:41:40.548Z,9.31
2022-09-23T16:44:09.567Z,10.26
2022-09-23T16:46:36.590Z,9.69
2022-09-23T16:49:04.833Z,10.45
2022-09-23T16:51:38.293Z,11.02
2022-09-23T16:54:10.341Z,9.12
2022-09-23T16:56:44.176Z,10.83
2022-09-23T16:59:13.551Z,8.74
2022-09-23T17:01:59.180Z,8.36
2022-09-23T17:04:27.831Z,10.45
2022-09-23T17:06:56.104Z,9.69
2022-09-23T17:09:27.324Z,11.21
2022-09-23T17:12:24.244Z,11.02
2022-09-23T17:14:52.654Z,9.31
2022-09-23T17:17:19.384Z,9.50
2022-09-23T17:19:46.125Z,9.31
2022-09-23T17:22:13.350Z,10.26
2022-09-23T17:24:40.067Z,8.36
2022-09-23T17:27:06.883Z,10.26
2022-09-23T17:29:33.570Z,9.69
2022-09-23T17:32:00.297Z,10.26
2022-09-23T17:34:28.920Z,11.02
2022-09-23T17:36:55.654Z,10.83
2022-09-23T17:39:22.269Z,9.12
2022-09-23T17:41:48.941Z,9.50
2022-09-23T17:44:17.652Z,9.69
2022-09-23T17:46:44.639Z,11.21
2022-09-23T17:49:12.114Z,12.16
2022-09-23T17:51:39.048Z,10.07
2022-09-23T17:54:06.709Z,9.88
2022-09-23T17:56:33.899Z,10.64
2022-09-23T17:59:02.805Z,12.35
2022-09-23T18:01:30.624Z,9.50
2022-09-23T18:04:05.753Z,12.16
2022-09-23T18:06:37.322Z,12.16
2022-09-23T18:09:08.609Z,10.64
2022-09-23T18:11:43.379Z,10.07
2022-09-23T18:14:21.555Z,10.45
2022-09-23T18:16:52.410Z,12.54
2022-09-23T18:19:24.924Z,14.25
2022-09-23T18:21:56.094Z,12.54
2022-09-23T18:24:33.043Z,12.35
2022-09-23T18:27:01.641Z,14.06
2022-09-23T18:29:28.636Z,14.44
2022-09-23T18:31:56.172Z,12.73
2022-09-23T18:34:23.599Z,16.91
2022-09-23T18:36:50.912Z,16.34
2022-09-23T18:39:18.055Z,15.77
2022-09-23T18:41:44.859Z,15.39
2022-09-23T18:44:11.661Z,17.29
2022-09-23T18:46:38.700Z,14.63
2022-09-23T18:49:23.972Z,14.06
2022-09-23T18:51:55.563Z,14.25
2022-09-23T18:54:24.813Z,12.35
2022-09-23T18:56:54.502Z,15.39
2022-09-23T18:59:25.100Z,12.73
2022-09-23T19:01:55.337Z,13.49
2022-09-23T19:04:25.080Z,15.20
2022-09-23T19:06:53.922Z,17.10
2022-09-23T19:09:20.753Z,16.53
2022-09-23T19:11:52.162Z,17.48
2022-09-23T19:14:19.604Z,22.42
2022-09-23T19:16:48.925Z,22.23
2022-09-23T19:19:15.894Z,25.84
2022-09-23T19:21:42.654Z,19.19
2022-09-23T19:24:15.607Z,22.23
2022-09-23T19:26:43.917Z,18.24
2022-09-23T19:29:19.395Z,18.81
2022-09-23T19:31:46.159Z,19.19
2022-09-23T19:34:19.662Z,19.00
2022-09-23T19:36:47.690Z,20.90
2022-09-23T19:39:21.076Z,19.00
2022-09-23T19:41:49.589Z,24.13
2022-09-23T19:44:17.367Z,21.66
2022-09-23T19:46:46.133Z,21.09
2022-09-23T19:49:13.721Z,23.18
2022-09-23T19:51:41.035Z,18.05
2022-09-23T19:54:09.094Z,16.53
2022-09-23T19:56:36.538Z,17.29
2022-09-23T19:59:05.747Z,15.39
2022-09-23T20:01:33.413Z,16.72
2022-09-23T20:04:00.635Z,17.48
2022-09-23T20:06:38.143Z,13.87
2022-09-23T20:09:05.950Z,12.54
2022-09-23T20:11:33.515Z,13.87
2022-09-23T20:14:03.819Z,13.30
2022-09-23T20:16:35.048Z,16.53
2022-09-23T20:19:04.100Z,11.21
2022-09-23T20:21:33.354Z,13.30
2022-09-23T20:24:00.778Z,14.25
2022-09-23T20:26:46.228Z,14.06
2022-09-23T20:29:13.112Z,11.78
2022-09-23T20:31:42.898Z,14.25
2022-09-23T20:34:10.828Z,12.73
2022-09-23T20:36:41.356Z,14.06
2022-09-23T20:39:10.226Z,11.78
2022-09-23T20:41:39.279Z,13.49
2022-09-23T20:44:12.182Z,16.15
2022-09-23T20:46:42.966Z,15.01
2022-09-23T20:49:14.228Z,16.72
2022-09-23T20:51:40.850Z,16.53
2022-09-23T20:54:07.694Z,17.67
2022-09-23T20:56:34.645Z,13.11
2022-09-23T20:59:02.747Z,13.87
2022-09-23T21:01:35.220Z,14.44
2022-09-23T21:04:04.847Z,16.53
2022-09-23T21:06:34.942Z,15.20
2022-09-23T21:09:01.999Z,17.67
2022-09-23T21:11:29.270Z,18.24
2022-09-23T21:13:56.522Z,15.20
2022-09-23T21:16:24.025Z,18.81
2022-09-23T21:18:51.940Z,19.00
2022-09-23T21:21:22.225Z,18.05
2022-09-23T21:23:50.434Z,22.42
2022-09-23T21:26:21.463Z,19.38
2022-09-23T21:28:55.374Z,19.38
2022-09-23T21:31:26.824Z,16.91
2022-09-23T21:34:06.337Z,18.62
2022-09-23T21:36:37.096Z,15.20
2022-09-23T21:39:09.204Z,19.57
2022-09-23T21:41:36.866Z,15.77
2022-09-23T21:44:04.951Z,15.39
2022-09-23T21:46:35.377Z,14.82
2022-09-23T21:49:03.626Z,14.44
2022-09-23T21:51:40.125Z,15.20
2022-09-23T21:54:16.134Z,14.44
2022-09-23T21:56:44.322Z,16.15
2022-09-23T21:59:11.547Z,14.63
2022-09-23T22:01:43.516Z,17.10
2022-09-23T22:04:17.976Z,14.63
2022-09-23T22:06:45.544Z,14.44
2022-09-23T22:09:17.754Z,13.49
2022-09-23T22:12:04.273Z,13.30
2022-09-23T22:14:31.608Z,11.78
2022-09-23T22:17:02.256Z,18.24
2022-09-23T22:19:35.800Z,14.63
2022-09-23T22:22:12.742Z,13.68
2022-09-23T22:24:44.798Z,13.68
2022-09-23T22:27:14.880Z,16.34
2022-09-23T22:30:00.507Z,20.71
2022-09-23T22:32:43.683Z,14.44
2022-09-23T22:35:17.881Z,13.87
2022-09-23T22:37:45.961Z,14.63
2022-09-23T22:40:15.771Z,15.77
2022-09-23T22:42:43.868Z,12.92
2022-09-23T22:45:12.265Z,12.35
2022-09-23T22:47:41.126Z,12.73
2022-09-23T22:50:09.850Z,13.11
2022-09-23T22:52:37.873Z,14.25
2022-09-23T22:55:07.888Z,13.30
2022-09-23T22:57:35.418Z,12.92
2022-09-23T23:00:05.657Z,12.73
2022-09-23T23:02:32.778Z,12.54
2022-09-23T23:05:00.878Z,11.78
2022-09-23T23:07:27.670Z,12.92
2022-09-23T23:09:54.430Z,11.21
2022-09-23T23:12:22.409Z,13.49
2022-09-23T23:14:49.724Z,13.30
2022-09-23T23:17:18.641Z,10.64
2022-09-23T23:19:45.364Z,14.44
2022-09-23T23:22:12.044Z,11.78
2022-09-23T23:24:38.868Z,15.01
2022-09-23T23:27:05.473Z,12.35
2022-09-23T23:29:32.190Z,14.06
2022-09-23T23:31:58.875Z,13.11
2022-09-23T23:34:25.616Z,13.30
2022-09-23T23:36:56.573Z,12.54
2022-09-23T23:39:25.452Z,11.78
2022-09-23T23:41:55.038Z,10.83
2022-09-23T23:44:24.638Z,16.34
2022-09-23T23:46:51.751Z,12.73
2022-09-23T23:49:18.610Z,14.06
2022-09-23T23:51:45.286Z,12.73
2022-09-23T23:54:12.680Z,12.35
2022-09-23T23:56:39.479Z,16.34
2022-09-23T23:59:06.785Z,12.92
